sensor_id;sensor_type;location;lat;lon;timestamp;pressure;altitude;pressure_sealevel;temperature;humidity
71857;BME280;63344;46.980;28.882;2024-03-22T00:00:38;101176.94;;;1.97;94.95
71857;BME280;63344;46.980;28.882;2024-03-22T00:03:29;101171.63;;;1.85;94.94
71857;BME280;63344;46.980;28.882;2024-03-22T00:05:59;101175.13;;;1.84;95.22
71857;BME280;63344;46.980;28.882;2024-03-22T00:08:36;101176.88;;;1.82;94.98
71857;BME280;63344;46.980;28.882;2024-03-22T00:11:04;101165.47;;;1.72;95.19
71857;BME280;63344;46.980;28.882;2024-03-22T00:13:34;101174.25;;;1.84;95.82
71857;BME280;63344;46.980;28.882;2024-03-22T00:16:02;101174.25;;;1.85;96.02
71857;BME280;63344;46.980;28.882;2024-03-22T00:18:32;101130.50;;;1.64;96.11
71857;BME280;63344;46.980;28.882;2024-03-22T00:21:07;101164.63;;;1.78;95.96
71857;BME280;63344;46.980;28.882;2024-03-22T00:23:45;101179.41;;;1.73;96.13
71857;BME280;63344;46.980;28.882;2024-03-22T00:26:14;101179.50;;;1.82;96.83
71857;BME280;63344;46.980;28.882;2024-03-22T00:28:41;101169.88;;;1.81;97.00
71857;BME280;63344;46.980;28.882;2024-03-22T00:31:09;101172.50;;;1.86;96.81
71857;BME280;63344;46.980;28.882;2024-03-22T00:33:36;101169.03;;;1.82;96.85
71857;BME280;63344;46.980;28.882;2024-03-22T00:36:05;101172.47;;;1.79;96.57
71857;BME280;63344;46.980;28.882;2024-03-22T00:38:34;101154.13;;;1.75;97.10
71857;BME280;63344;46.980;28.882;2024-03-22T00:41:01;101165.56;;;1.88;96.98
71857;BME280;63344;46.980;28.882;2024-03-22T00:43:30;101165.53;;;1.89;97.13
71857;BME280;63344;46.980;28.882;2024-03-22T00:45:57;101147.16;;;1.77;96.98
71857;BME280;63344;46.980;28.882;2024-03-22T00:48:25;101167.19;;;1.73;96.44
71857;BME280;63344;46.980;28.882;2024-03-22T00:50:52;101163.66;;;1.62;96.49
71857;BME280;63344;46.980;28.882;2024-03-22T00:53:27;101134.69;;;1.39;96.56
71857;BME280;63344;46.980;28.882;2024-03-22T00:55:55;101145.19;;;1.42;96.60
71857;BME280;63344;46.980;28.882;2024-03-22T00:58:27;101151.44;;;1.63;97.30
71857;BME280;63344;46.980;28.882;2024-03-22T01:00:56;101149.72;;;1.66;96.86
71857;BME280;63344;46.980;28.882;2024-03-22T01:03:23;101151.44;;;1.66;96.66
71857;BME280;63344;46.980;28.882;2024-03-22T01:05:53;101152.34;;;1.66;96.76
71857;BME280;63344;46.980;28.882;2024-03-22T01:08:20;101147.94;;;1.65;97.09
71857;BME280;63344;46.980;28.882;2024-03-22T01:10:50;101152.31;;;1.65;96.73
71857;BME280;63344;46.980;28.882;2024-03-22T01:13:27;101113.78;;;1.45;97.26
71857;BME280;63344;46.980;28.882;2024-03-22T01:15:56;101146.22;;;1.67;97.77
71857;BME280;63344;46.980;28.882;2024-03-22T01:18:30;101147.91;;;1.56;97.92
71857;BME280;63344;46.980;28.882;2024-03-22T01:21:03;101145.25;;;1.48;98.48
71857;BME280;63344;46.980;28.882;2024-03-22T01:23:47;101147.81;;;1.42;98.15
71857;BME280;63344;46.980;28.882;2024-03-22T01:26:45;101124.06;;;1.17;98.05
71857;BME280;63344;46.980;28.882;2024-03-22T01:29:24;101127.63;;;1.24;98.00
71857;BME280;63344;46.980;28.882;2024-03-22T01:31:52;101138.97;;;1.25;98.12
71857;BME280;63344;46.980;28.882;2024-03-22T01:34:31;101131.06;;;1.18;98.52
71857;BME280;63344;46.980;28.882;2024-03-22T01:37:12;101137.16;;;1.16;98.36
71857;BME280;63344;46.980;28.882;2024-03-22T01:39:42;101121.38;;;1.07;99.02
71857;BME280;63344;46.980;28.882;2024-03-22T01:42:30;101137.13;;;1.14;98.56
71857;BME280;63344;46.980;28.882;2024-03-22T01:45:09;101135.44;;;1.18;98.91
71857;BME280;63344;46.980;28.882;2024-03-22T01:47:43;101137.97;;;1.13;99.07
71857;BME280;63344;46.980;28.882;2024-03-22T01:50:21;101141.38;;;1.03;99.10
71857;BME280;63344;46.980;28.882;2024-03-22T01:52:52;101134.38;;;0.99;99.07
71857;BME280;63344;46.980;28.882;2024-03-22T01:55:39;101136.13;;;1.02;99.45
71857;BME280;63344;46.980;28.882;2024-03-22T01:58:30;101136.16;;;1.03;99.14
71857;BME280;63344;46.980;28.882;2024-03-22T02:01:12;101120.41;;;0.94;99.65
71857;BME280;63344;46.980;28.882;2024-03-22T02:03:39;101132.56;;;0.92;99.77
71857;BME280;63344;46.980;28.882;2024-03-22T02:06:09;101128.25;;;0.94;99.62
71857;BME280;63344;46.980;28.882;2024-03-22T02:09:03;101106.19;;;0.67;99.33
71857;BME280;63344;46.980;28.882;2024-03-22T02:11:40;101137.69;;;0.78;98.97
71857;BME280;63344;46.980;28.882;2024-03-22T02:14:07;101144.69;;;0.81;98.82
71857;BME280;63344;46.980;28.882;2024-03-22T02:16:34;101149.06;;;0.83;99.45
71857;BME280;63344;46.980;28.882;2024-03-22T02:19:10;101152.56;;;0.87;100.00
71857;BME280;63344;46.980;28.882;2024-03-22T02:21:52;101142.13;;;0.90;100.00
71857;BME280;63344;46.980;28.882;2024-03-22T02:24:24;101140.50;;;0.98;100.00
71857;BME280;63344;46.980;28.882;2024-03-22T02:26:59;101141.31;;;0.94;100.00
71857;BME280;63344;46.980;28.882;2024-03-22T02:29:28;101150.03;;;0.93;100.00
71857;BME280;63344;46.980;28.882;2024-03-22T02:32:06;101127.19;;;0.75;100.00
71857;BME280;63344;46.980;28.882;2024-03-22T02:34:34;101140.28;;;0.76;100.00
71857;BME280;63344;46.980;28.882;2024-03-22T02:37:05;101141.09;;;0.74;100.00
71857;BME280;63344;46.980;28.882;2024-03-22T02:39:32;101148.03;;;0.67;100.00
71857;BME280;63344;46.980;28.882;2024-03-22T02:42:09;101140.19;;;0.67;100.00
71857;BME280;63344;46.980;28.882;2024-03-22T02:44:35;101155.88;;;0.67;100.00
71857;BME280;63344;46.980;28.882;2024-03-22T02:47:12;101152.38;;;0.67;100.00
71857;BME280;63344;46.980;28.882;2024-03-22T02:49:45;101145.47;;;0.70;100.00
71857;BME280;63344;46.980;28.882;2024-03-22T02:52:19;101135.88;;;0.74;100.00
71857;BME280;63344;46.980;28.882;2024-03-22T02:54:50;101149.16;;;0.94;100.00
71857;BME280;63344;46.980;28.882;2024-03-22T02:57:24;101154.47;;;1.05;100.00
71857;BME280;63344;46.980;28.882;2024-03-22T02:59:54;101157.19;;;1.14;100.00
71857;BME280;63344;46.980;28.882;2024-03-22T03:02:29;101152.00;;;1.18;100.00
71857;BME280;63344;46.980;28.882;2024-03-22T03:05:03;101152.03;;;1.25;100.00
71857;BME280;63344;46.980;28.882;2024-03-22T03:08:13;101155.53;;;1.30;100.00
71857;BME280;63344;46.980;28.882;2024-03-22T03:10:39;101157.34;;;1.32;100.00
71857;BME280;63344;46.980;28.882;2024-03-22T03:13:17;101156.50;;;1.39;100.00
71857;BME280;63344;46.980;28.882;2024-03-22T03:15:46;101152.16;;;1.43;100.00
71857;BME280;63344;46.980;28.882;2024-03-22T03:18:22;101144.34;;;1.49;100.00
71857;BME280;63344;46.980;28.882;2024-03-22T03:21:18;101161.94;;;1.69;100.00
71857;BME280;63344;46.980;28.882;2024-03-22T03:23:58;101155.00;;;1.72;100.00
71857;BME280;63344;46.980;28.882;2024-03-22T03:26:44;101152.38;;;1.77;100.00
71857;BME280;63344;46.980;28.882;2024-03-22T03:29:17;101151.56;;;1.87;100.00
71857;BME280;63344;46.980;28.882;2024-03-22T03:31:55;101134.97;;;1.82;100.00
71857;BME280;63344;46.980;28.882;2024-03-22T03:34:45;101153.28;;;1.84;100.00
71857;BME280;63344;46.980;28.882;2024-03-22T03:37:22;101131.38;;;1.68;99.48
71857;BME280;63344;46.980;28.882;2024-03-22T03:40:10;101133.22;;;1.81;99.27
71857;BME280;63344;46.980;28.882;2024-03-22T03:42:44;101147.22;;;1.89;99.26
71857;BME280;63344;46.980;28.882;2024-03-22T03:45:19;101151.66;;;1.98;99.07
71857;BME280;63344;46.980;28.882;2024-03-22T03:47:52;101149.91;;;1.98;98.84
71857;BME280;63344;46.980;28.882;2024-03-22T03:50:26;101156.00;;;2.04;99.16
71857;BME280;63344;46.980;28.882;2024-03-22T03:53:01;101139.44;;;2.00;99.00
71857;BME280;63344;46.980;28.882;2024-03-22T03:55:31;101156.94;;;2.10;99.02
71857;BME280;63344;46.980;28.882;2024-03-22T03:58:27;101156.94;;;2.10;98.75
71857;BME280;63344;46.980;28.882;2024-03-22T04:01:08;101151.69;;;2.13;98.17
71857;BME280;63344;46.980;28.882;2024-03-22T04:03:40;101146.44;;;2.13;98.52
71857;BME280;63344;46.980;28.882;2024-03-22T04:06:12;101149.94;;;2.11;98.47
71857;BME280;63344;46.980;28.882;2024-03-22T04:08:52;101151.66;;;1.98;98.00
71857;BME280;63344;46.980;28.882;2024-03-22T04:11:40;101139.31;;;1.83;98.17
71857;BME280;63344;46.980;28.882;2024-03-22T04:14:16;101155.09;;;1.95;98.51
71857;BME280;63344;46.980;28.882;2024-03-22T04:16:46;101157.75;;;2.02;98.40
71857;BME280;63344;46.980;28.882;2024-03-22T04:19:24;101157.78;;;2.06;98.51
71857;BME280;63344;46.980;28.882;2024-03-22T04:21:59;101128.91;;;1.92;99.08
71857;BME280;63344;46.980;28.882;2024-03-22T04:24:32;101129.78;;;1.94;99.13
71857;BME280;63344;46.980;28.882;2024-03-22T04:27:35;101170.06;;;2.12;98.80
71857;BME280;63344;46.980;28.882;2024-03-22T04:30:16;101165.66;;;2.15;99.10
71857;BME280;63344;46.980;28.882;2024-03-22T04:32:50;101164.84;;;2.23;99.44
71857;BME280;63344;46.980;28.882;2024-03-22T04:35:22;101151.75;;;2.18;99.41
71857;BME280;63344;46.980;28.882;2024-03-22T04:38:15;101180.63;;;2.38;99.45
71857;BME280;63344;46.980;28.882;2024-03-22T04:40:54;101178.03;;;2.44;99.39
71857;BME280;63344;46.980;28.882;2024-03-22T04:43:29;101173.66;;;2.45;98.65
71857;BME280;63344;46.980;28.882;2024-03-22T04:46:01;101166.66;;;2.41;98.19
71857;BME280;63344;46.980;28.882;2024-03-22T04:48:35;101172.81;;;2.49;97.93
71857;BME280;63344;46.980;28.882;2024-03-22T04:51:06;101158.81;;;2.45;97.84
71857;BME280;63344;46.980;28.882;2024-03-22T04:53:44;101171.94;;;2.59;97.77
71857;BME280;63344;46.980;28.882;2024-03-22T04:56:13;101184.22;;;2.60;97.14
71857;BME280;63344;46.980;28.882;2024-03-22T04:59:01;101183.34;;;2.63;96.94
71857;BME280;63344;46.980;28.882;2024-03-22T05:01:31;101178.06;;;2.61;96.69
71857;BME280;63344;46.980;28.882;2024-03-22T05:04:09;101193.78;;;2.59;96.63
71857;BME280;63344;46.980;28.882;2024-03-22T05:07:07;101191.16;;;2.55;96.54
71857;BME280;63344;46.980;28.882;2024-03-22T05:10:23;101188.59;;;2.63;96.61
71857;BME280;63344;46.980;28.882;2024-03-22T05:13:33;101198.22;;;2.74;96.96
71857;BME280;63344;46.980;28.882;2024-03-22T05:32:12;101183.44;;;3.44;95.63
71857;BME280;63344;46.980;28.882;2024-03-22T05:35:15;101179.91;;;3.45;95.33
71857;BME280;63344;46.980;28.882;2024-03-22T06:34:17;101194.88;;;6.30;88.92
71857;BME280;63344;46.980;28.882;2024-03-22T06:38:03;101211.31;;;6.51;88.42
71857;BME280;63344;46.980;28.882;2024-03-22T06:55:04;101217.25;;;7.30;81.83
71857;BME280;63344;46.980;28.882;2024-03-22T07:02:49;101210.53;;;7.64;79.54
71857;BME280;63344;46.980;28.882;2024-03-22T07:20:12;101207.19;;;8.02;77.36
71857;BME280;63344;46.980;28.882;2024-03-22T07:32:15;101202.66;;;8.55;73.62
71857;BME280;63344;46.980;28.882;2024-03-22T07:35:53;101202.28;;;8.29;73.85
71857;BME280;63344;46.980;28.882;2024-03-22T07:52:19;101186.22;;;8.36;74.04
71857;BME280;63344;46.980;28.882;2024-03-22T08:07:35;101155.22;;;8.00;74.22
71857;BME280;63344;46.980;28.882;2024-03-22T08:10:50;101167.34;;;8.13;74.61
71857;BME280;63344;46.980;28.882;2024-03-22T08:14:01;101167.97;;;8.24;73.07
71857;BME280;63344;46.980;28.882;2024-03-22T08:35:20;101169.84;;;9.72;66.42
71857;BME280;63344;46.980;28.882;2024-03-22T09:31:30;101135.56;;;12.64;51.42
71857;BME280;63344;46.980;28.882;2024-03-22T10:50:14;101092.72;;;11.50;54.41
71857;BME280;63344;46.980;28.882;2024-03-22T13:06:11;100966.44;;;11.61;56.07
71857;BME280;63344;46.980;28.882;2024-03-22T13:10:45;100963.19;;;11.52;55.81
71857;BME280;63344;46.980;28.882;2024-03-22T13:36:28;100955.88;;;11.34;55.72
71857;BME280;63344;46.980;28.882;2024-03-22T13:57:42;100940.84;;;11.33;54.37
71857;BME280;63344;46.980;28.882;2024-03-22T14:05:30;100942.81;;;11.28;55.46
71857;BME280;63344;46.980;28.882;2024-03-22T15:11:14;100877.47;;;10.47;56.00
71857;BME280;63344;46.980;28.882;2024-03-22T15:15:21;100893.25;;;10.51;55.73
71857;BME280;63344;46.980;28.882;2024-03-22T15:19:02;100906.78;;;10.44;55.79
71857;BME280;63344;46.980;28.882;2024-03-22T16:27:21;100918.56;;;8.53;60.99
71857;BME280;63344;46.980;28.882;2024-03-22T16:31:09;100917.22;;;8.35;61.52
71857;BME280;63344;46.980;28.882;2024-03-22T16:45:26;100915.88;;;7.78;64.22
71857;BME280;63344;46.980;28.882;2024-03-22T16:49:25;100909.25;;;7.61;64.46
71857;BME280;63344;46.980;28.882;2024-03-22T17:40:24;100914.78;;;6.05;71.80
71857;BME280;63344;46.980;28.882;2024-03-22T17:43:11;100912.22;;;6.01;72.00
71857;BME280;63344;46.980;28.882;2024-03-22T17:46:19;100894.75;;;5.90;71.40
71857;BME280;63344;46.980;28.882;2024-03-22T17:53:30;100894.97;;;5.76;72.05
71857;BME280;63344;46.980;28.882;2024-03-22T17:56:44;100908.00;;;5.87;72.14
71857;BME280;63344;46.980;28.882;2024-03-22T17:59:42;100901.78;;;5.91;72.03
71857;BME280;63344;46.980;28.882;2024-03-22T18:03:19;100916.72;;;5.91;72.02
71857;BME280;63344;46.980;28.882;2024-03-22T18:06:22;100914.16;;;5.86;72.35
71857;BME280;63344;46.980;28.882;2024-03-22T18:09:37;100891.53;;;5.71;72.08
71857;BME280;63344;46.980;28.882;2024-03-22T18:12:36;100915.97;;;5.83;72.30
71857;BME280;63344;46.980;28.882;2024-03-22T18:32:20;100909.06;;;5.04;74.61
71857;BME280;63344;46.980;28.882;2024-03-22T18:35:47;100909.22;;;4.92;74.67
71857;BME280;63344;46.980;28.882;2024-03-22T18:38:53;100905.03;;;4.72;75.17
71857;BME280;63344;46.980;28.882;2024-03-22T18:42:28;100918.25;;;4.66;76.10
71857;BME280;63344;46.980;28.882;2024-03-22T19:10:16;100913.41;;;4.17;78.83
71857;BME280;63344;46.980;28.882;2024-03-22T19:13:26;100901.28;;;4.02;79.09
71857;BME280;63344;46.980;28.882;2024-03-22T19:17:06;100926.59;;;4.14;79.35
71857;BME280;63344;46.980;28.882;2024-03-22T19:20:17;100924.88;;;4.10;79.63
71857;BME280;63344;46.980;28.882;2024-03-22T20:03:13;100918.19;;;3.56;82.23
71857;BME280;63344;46.980;28.882;2024-03-22T20:26:33;100897.34;;;3.26;83.20
71857;BME280;63344;46.980;28.882;2024-03-22T20:29:49;100893.84;;;3.22;83.69
